Time;durP1;ratioP1;P1;durP2;ratioP2;P2;SDS_P1;SDS_P2;PMS_P1;PMS_P2;Temp;Humidity;BMP_temperature;BMP_pressure;BME280_temperature;BME280_humidity;BME280_pressure;Samples;Min_cycle;Max_cycle;Signal;HPM_P1;HPM_P2
2022/01/11 00:00:35;;;;;;;28.73;21.02;;;;;;;;;;4983524;28;20466;-77
2022/01/11 00:03:01;;;;;;;29.05;21.52;;;;;;;;;;5003915;28;20092;-77
2022/01/11 00:07:56;;;;;;;27.02;21.58;;;;;;;;;;5010444;28;20056;-78
2022/01/11 00:10:29;;;;;;;27.33;20.88;;;;;;;;;;5005110;28;20042;-78
2022/01/11 00:13:02;;;;;;;25.98;21.75;;;;;;;;;;5008093;28;20758;-77
2022/01/11 00:15:28;;;;;;;26.50;20.83;;;;;;;;;;5000098;28;20043;-78
2022/01/11 00:17:54;;;;;;;26.90;20.15;;;;;;;;;;4988958;28;20113;-77
2022/01/11 00:20:21;;;;;;;27.85;20.75;;;;;;;;;;5006303;28;20046;-77
2022/01/11 00:25:27;;;;;;;27.75;20.10;;;;;;;;;;5002965;28;20049;-77
2022/01/11 00:27:53;;;;;;;28.55;20.38;;;;;;;;;;4984756;28;20049;-76
2022/01/11 00:30:20;;;;;;;23.17;19.63;;;;;;;;;;4990007;28;20045;-77
2022/01/11 00:32:51;;;;;;;24.85;19.48;;;;;;;;;;5010867;28;20049;-77
2022/01/11 00:35:22;;;;;;;24.70;19.38;;;;;;;;;;5005969;28;20100;-77
2022/01/11 00:37:48;;;;;;;23.30;18.80;;;;;;;;;;4981152;28;20405;-78
2022/01/11 00:40:14;;;;;;;25.23;19.75;;;;;;;;;;4992746;28;20058;-77
2022/01/11 00:42:44;;;;;;;25.65;19.80;;;;;;;;;;5002862;28;20132;-77
2022/01/11 00:45:11;;;;;;;23.60;19.17;;;;;;;;;;5006314;28;20054;-78
2022/01/11 00:47:37;;;;;;;26.80;19.38;;;;;;;;;;5005042;28;20117;-78
2022/01/11 00:50:04;;;;;;;25.08;19.48;;;;;;;;;;5005355;28;20053;-77
2022/01/11 00:52:30;;;;;;;23.02;19.08;;;;;;;;;;4982245;28;20046;-78
2022/01/11 00:54:57;;;;;;;23.85;18.77;;;;;;;;;;5009587;28;20382;-77
2022/01/11 00:57:23;;;;;;;23.60;18.25;;;;;;;;;;5007588;28;20042;-77
2022/01/11 00:59:50;;;;;;;22.20;18.05;;;;;;;;;;5004116;28;20046;-77
2022/01/11 01:02:16;;;;;;;24.52;18.38;;;;;;;;;;5005583;28;20140;-78
2022/01/11 01:04:42;;;;;;;23.35;17.90;;;;;;;;;;5005792;28;20150;-78
2022/01/11 01:07:08;;;;;;;22.70;17.67;;;;;;;;;;5007241;28;20080;-78
2022/01/11 01:09:49;;;;;;;23.15;18.00;;;;;;;;;;4989098;28;20046;-77
2022/01/11 01:12:15;;;;;;;26.30;18.23;;;;;;;;;;4990980;28;20064;-77
2022/01/11 01:14:41;;;;;;;21.48;17.90;;;;;;;;;;4990424;28;20489;-78
2022/01/11 01:17:07;;;;;;;22.20;17.92;;;;;;;;;;5005479;28;20084;-77
2022/01/11 01:19:34;;;;;;;22.60;17.10;;;;;;;;;;5000748;28;20069;-77
2022/01/11 01:22:00;;;;;;;22.42;16.13;;;;;;;;;;4993319;28;20056;-77
2022/01/11 01:24:27;;;;;;;23.75;16.92;;;;;;;;;;4985228;28;20159;-77
2022/01/11 01:26:56;;;;;;;20.63;16.00;;;;;;;;;;4989224;28;20046;-77
2022/01/11 01:29:22;;;;;;;19.27;15.48;;;;;;;;;;5003111;28;20119;-78
2022/01/11 01:31:48;;;;;;;19.13;15.75;;;;;;;;;;4985712;28;20507;-77
2022/01/11 01:34:14;;;;;;;21.95;16.38;;;;;;;;;;5004420;28;20439;-78
2022/01/11 01:36:40;;;;;;;21.90;16.48;;;;;;;;;;5001549;28;20045;-77
2022/01/11 01:39:06;;;;;;;21.52;15.35;;;;;;;;;;4987101;28;20486;-77
2022/01/11 01:41:32;;;;;;;22.58;15.15;;;;;;;;;;5001511;28;20100;-77
2022/01/11 01:44:02;;;;;;;22.48;15.30;;;;;;;;;;5003117;28;20477;-77
2022/01/11 01:46:29;;;;;;;19.20;15.63;;;;;;;;;;4997731;28;20486;-77
2022/01/11 01:48:58;;;;;;;21.80;15.25;;;;;;;;;;4987729;28;20073;-77
2022/01/11 01:51:24;;;;;;;20.27;13.93;;;;;;;;;;4984130;28;20500;-77
2022/01/11 01:53:51;;;;;;;20.80;14.80;;;;;;;;;;4986133;28;20062;-77
2022/01/11 01:56:18;;;;;;;22.05;15.50;;;;;;;;;;4983150;28;20041;-77
2022/01/11 01:58:45;;;;;;;21.45;15.00;;;;;;;;;;4981218;28;20058;-77
2022/01/11 02:01:13;;;;;;;21.20;14.30;;;;;;;;;;4987978;28;20172;-77
2022/01/11 02:03:40;;;;;;;21.98;15.27;;;;;;;;;;4989085;28;20057;-77
2022/01/11 02:06:11;;;;;;;18.35;14.57;;;;;;;;;;4989214;28;20049;-77
2022/01/11 02:08:38;;;;;;;21.58;15.73;;;;;;;;;;4983574;28;20061;-77
2022/01/11 02:11:04;;;;;;;26.60;15.85;;;;;;;;;;4982785;28;20085;-77
2022/01/11 02:13:30;;;;;;;27.98;16.05;;;;;;;;;;4988227;28;20157;-77
2022/01/11 02:15:57;;;;;;;21.85;15.40;;;;;;;;;;5001880;28;20128;-77
2022/01/11 02:18:25;;;;;;;26.42;15.68;;;;;;;;;;4986700;28;20092;-77
2022/01/11 02:20:52;;;;;;;21.38;14.73;;;;;;;;;;5002282;28;20042;-76
2022/01/11 02:23:19;;;;;;;23.25;16.17;;;;;;;;;;5006385;28;20081;-77
2022/01/11 02:25:45;;;;;;;23.45;15.43;;;;;;;;;;4980918;28;20458;-76
2022/01/11 02:28:13;;;;;;;21.67;16.13;;;;;;;;;;4984624;28;20498;-76
2022/01/11 02:30:39;;;;;;;21.25;15.80;;;;;;;;;;4988345;28;20045;-77
2022/01/11 02:33:12;;;;;;;27.10;17.27;;;;;;;;;;4986588;28;20046;-77
2022/01/11 02:35:38;;;;;;;25.27;15.47;;;;;;;;;;4999648;28;20643;-77
2022/01/11 02:38:04;;;;;;;23.60;15.25;;;;;;;;;;5003679;28;20717;-77
2022/01/11 02:40:30;;;;;;;22.15;16.42;;;;;;;;;;4983958;28;20045;-76
2022/01/11 02:42:56;;;;;;;21.92;16.55;;;;;;;;;;5004081;28;20084;-77
2022/01/11 02:45:22;;;;;;;25.42;17.17;;;;;;;;;;4984922;28;20537;-77
2022/01/11 02:47:49;;;;;;;27.08;16.88;;;;;;;;;;4984035;28;20120;-77
2022/01/11 02:50:16;;;;;;;24.30;16.95;;;;;;;;;;4989255;28;20105;-77
2022/01/11 02:52:42;;;;;;;27.88;18.38;;;;;;;;;;5008703;28;20046;-76
2022/01/11 02:55:13;;;;;;;25.70;16.95;;;;;;;;;;4988813;28;20116;-77
2022/01/11 02:57:39;;;;;;;28.38;18.13;;;;;;;;;;5006169;28;20085;-77
2022/01/11 03:00:07;;;;;;;25.90;17.98;;;;;;;;;;4993936;28;20129;-77
2022/01/11 03:02:33;;;;;;;23.67;16.60;;;;;;;;;;4987887;28;20459;-77
2022/01/11 03:04:59;;;;;;;24.02;16.90;;;;;;;;;;5007220;28;20129;-77
2022/01/11 03:07:25;;;;;;;24.85;17.17;;;;;;;;;;5004302;28;20081;-77
2022/01/11 03:10:04;;;;;;;26.52;17.77;;;;;;;;;;4979539;28;20085;-77
2022/01/11 03:12:30;;;;;;;26.30;17.92;;;;;;;;;;5002907;28;20464;-76
2022/01/11 03:14:56;;;;;;;27.08;17.55;;;;;;;;;;5004307;28;20050;-76
2022/01/11 03:17:23;;;;;;;27.80;16.67;;;;;;;;;;5000295;28;20058;-77
2022/01/11 03:19:49;;;;;;;30.35;17.30;;;;;;;;;;4981267;28;20398;-76
2022/01/11 03:22:15;;;;;;;30.40;18.50;;;;;;;;;;4986067;28;20141;-77
2022/01/11 03:24:44;;;;;;;26.92;17.25;;;;;;;;;;4986736;28;20125;-76
2022/01/11 03:27:10;;;;;;;22.40;16.27;;;;;;;;;;4981655;28;20042;-77
2022/01/11 03:29:38;;;;;;;26.83;17.00;;;;;;;;;;4985547;28;20398;-77
2022/01/11 03:32:07;;;;;;;25.60;16.98;;;;;;;;;;4982953;28;20061;-77
2022/01/11 03:34:33;;;;;;;23.40;16.73;;;;;;;;;;4986401;28;20042;-77
2022/01/11 03:36:59;;;;;;;25.15;16.52;;;;;;;;;;5003345;28;20517;-77
2022/01/11 03:39:26;;;;;;;25.67;18.35;;;;;;;;;;4989349;28;20053;-77
2022/01/11 03:41:52;;;;;;;25.25;17.27;;;;;;;;;;4984734;28;20046;-77
2022/01/11 03:44:18;;;;;;;25.15;16.10;;;;;;;;;;4985176;28;20073;-77
2022/01/11 03:46:44;;;;;;;23.73;16.40;;;;;;;;;;4986277;28;20205;-77
2022/01/11 03:49:10;;;;;;;24.75;16.92;;;;;;;;;;4986269;28;20060;-76
2022/01/11 03:51:39;;;;;;;25.02;16.42;;;;;;;;;;5001578;28;20038;-77
2022/01/11 03:54:13;;;;;;;24.20;17.77;;;;;;;;;;4988557;28;20127;-77
2022/01/11 03:56:39;;;;;;;22.65;16.85;;;;;;;;;;4988388;28;20062;-77
2022/01/11 03:59:07;;;;;;;25.95;17.45;;;;;;;;;;4997606;28;20073;-77
2022/01/11 04:01:34;;;;;;;25.92;17.40;;;;;;;;;;4986425;28;20058;-76
2022/01/11 04:04:00;;;;;;;24.13;17.38;;;;;;;;;;4988281;28;20101;-76
2022/01/11 04:06:27;;;;;;;22.02;16.42;;;;;;;;;;4986073;28;20406;-76
2022/01/11 04:08:58;;;;;;;21.52;16.20;;;;;;;;;;5006462;28;20050;-76
2022/01/11 04:11:28;;;;;;;24.48;17.33;;;;;;;;;;4991355;28;20038;-76
2022/01/11 04:13:54;;;;;;;23.00;16.38;;;;;;;;;;4999635;28;20121;-77
2022/01/11 04:16:20;;;;;;;25.88;17.38;;;;;;;;;;4982967;28;20189;-76
2022/01/11 04:18:46;;;;;;;22.13;16.60;;;;;;;;;;4982659;28;20410;-76
2022/01/11 04:21:12;;;;;;;27.98;17.40;;;;;;;;;;5003800;28;20053;-77
2022/01/11 04:23:39;;;;;;;24.20;16.27;;;;;;;;;;4980601;28;20133;-77
2022/01/11 04:26:05;;;;;;;26.55;17.10;;;;;;;;;;4987345;28;20482;-77
2022/01/11 04:28:31;;;;;;;24.92;17.52;;;;;;;;;;4989409;28;20545;-76
2022/01/11 04:30:59;;;;;;;26.42;18.08;;;;;;;;;;4987217;28;20038;-76
2022/01/11 04:33:26;;;;;;;28.27;17.10;;;;;;;;;;4987073;28;20054;-77
2022/01/11 04:35:52;;;;;;;27.35;18.08;;;;;;;;;;5006430;28;20046;-77
2022/01/11 04:38:19;;;;;;;27.98;17.45;;;;;;;;;;4986163;28;20099;-77
2022/01/11 04:40:45;;;;;;;23.92;16.70;;;;;;;;;;5002323;28;20077;-77
2022/01/11 04:43:11;;;;;;;28.83;17.40;;;;;;;;;;5000184;28;20108;-77
2022/01/11 04:45:37;;;;;;;27.40;18.20;;;;;;;;;;5009265;28;20046;-76
2022/01/11 04:48:04;;;;;;;25.58;18.60;;;;;;;;;;4986833;28;20507;-77
2022/01/11 04:50:30;;;;;;;27.13;17.88;;;;;;;;;;4989273;28;20046;-76
2022/01/11 04:52:57;;;;;;;25.55;18.13;;;;;;;;;;4999955;28;20168;-77
2022/01/11 04:55:23;;;;;;;29.17;19.73;;;;;;;;;;4989835;28;20041;-76
2022/01/11 04:57:49;;;;;;;27.23;19.20;;;;;;;;;;4988993;28;20050;-77
2022/01/11 05:00:16;;;;;;;26.77;18.67;;;;;;;;;;4983590;28;20046;-77
2022/01/11 05:02:42;;;;;;;28.42;19.10;;;;;;;;;;4991909;28;20050;-76
2022/01/11 05:05:08;;;;;;;30.27;18.90;;;;;;;;;;4984936;28;20127;-77
2022/01/11 05:07:34;;;;;;;29.80;18.70;;;;;;;;;;4985661;28;20065;-77
2022/01/11 05:10:00;;;;;;;25.85;17.60;;;;;;;;;;4985869;28;20050;-76
2022/01/11 05:12:27;;;;;;;27.20;18.33;;;;;;;;;;4991300;28;20188;-76
2022/01/11 05:14:53;;;;;;;27.83;19.08;;;;;;;;;;5004198;28;20617;-77
2022/01/11 05:17:19;;;;;;;26.85;19.10;;;;;;;;;;4993557;28;20128;-77
2022/01/11 05:19:45;;;;;;;28.20;18.55;;;;;;;;;;4987448;28;20132;-77
2022/01/11 05:22:11;;;;;;;29.67;19.10;;;;;;;;;;5006459;28;20050;-76
2022/01/11 05:24:37;;;;;;;33.17;19.45;;;;;;;;;;4990813;28;20056;-77
2022/01/11 05:27:03;;;;;;;29.95;20.15;;;;;;;;;;4987624;28;20053;-77
2022/01/11 05:29:31;;;;;;;32.08;20.45;;;;;;;;;;4990594;28;20034;-77
2022/01/11 05:31:58;;;;;;;30.08;19.10;;;;;;;;;;5006707;28;20050;-76
2022/01/11 05:34:24;;;;;;;28.60;18.90;;;;;;;;;;5004896;28;20128;-76
2022/01/11 05:36:50;;;;;;;32.35;20.13;;;;;;;;;;4987094;28;20097;-76
2022/01/11 05:39:16;;;;;;;30.05;18.60;;;;;;;;;;4987574;28;20136;-76
2022/01/11 05:41:42;;;;;;;31.75;20.00;;;;;;;;;;4984198;28;20125;-77
2022/01/11 05:44:08;;;;;;;30.20;19.25;;;;;;;;;;4980021;28;20048;-76
2022/01/11 05:46:35;;;;;;;31.70;20.48;;;;;;;;;;5004731;28;20050;-77
2022/01/11 05:49:01;;;;;;;30.25;19.85;;;;;;;;;;5012605;28;20037;-77
2022/01/11 05:51:27;;;;;;;30.42;21.35;;;;;;;;;;4980645;28;20042;-77
2022/01/11 05:53:54;;;;;;;31.23;20.05;;;;;;;;;;5004832;28;20046;-77
2022/01/11 05:56:20;;;;;;;29.67;19.20;;;;;;;;;;5006365;28;20049;-77
2022/01/11 05:58:46;;;;;;;30.17;19.55;;;;;;;;;;4990913;28;20069;-76
2022/01/11 06:01:13;;;;;;;29.77;19.13;;;;;;;;;;5008063;28;20050;-77
2022/01/11 06:03:39;;;;;;;30.70;19.52;;;;;;;;;;4983699;28;20053;-77
2022/01/11 06:06:05;;;;;;;30.83;20.02;;;;;;;;;;5001866;28;20127;-77
2022/01/11 06:08:31;;;;;;;34.60;21.73;;;;;;;;;;4999937;28;20040;-77
2022/01/11 06:10:57;;;;;;;31.17;20.00;;;;;;;;;;4987157;28;20442;-77
2022/01/11 06:13:24;;;;;;;30.30;19.27;;;;;;;;;;5003945;28;20045;-77
2022/01/11 06:15:50;;;;;;;32.88;20.45;;;;;;;;;;4985518;28;20406;-77
2022/01/11 06:18:16;;;;;;;31.98;20.20;;;;;;;;;;5003544;28;20041;-77
2022/01/11 06:20:42;;;;;;;34.70;20.95;;;;;;;;;;5006924;28;20045;-77
2022/01/11 06:23:08;;;;;;;30.35;19.88;;;;;;;;;;5000785;28;20109;-77
2022/01/11 06:25:35;;;;;;;32.42;20.15;;;;;;;;;;5002528;28;20053;-77
2022/01/11 06:28:01;;;;;;;32.15;20.20;;;;;;;;;;5000776;28;20038;-77
2022/01/11 06:30:27;;;;;;;29.98;19.58;;;;;;;;;;5006337;28;20112;-77
2022/01/11 06:32:55;;;;;;;33.63;20.58;;;;;;;;;;5002110;28;20046;-77
2022/01/11 06:35:22;;;;;;;32.58;19.95;;;;;;;;;;5005887;28;20046;-77
2022/01/11 06:37:48;;;;;;;34.72;20.48;;;;;;;;;;5002682;28;20100;-77
2022/01/11 06:40:16;;;;;;;30.98;20.33;;;;;;;;;;5004950;28;20053;-77
2022/01/11 06:42:53;;;;;;;35.22;20.50;;;;;;;;;;4983399;28;20082;-77
2022/01/11 06:45:20;;;;;;;33.47;21.52;;;;;;;;;;5001965;28;20091;-77
2022/01/11 06:47:47;;;;;;;34.45;20.77;;;;;;;;;;5006702;28;20495;-77
2022/01/11 06:50:13;;;;;;;30.13;19.88;;;;;;;;;;5003225;28;20398;-77
2022/01/11 06:52:39;;;;;;;33.17;20.73;;;;;;;;;;4999184;28;20081;-76
2022/01/11 06:55:06;;;;;;;35.55;20.00;;;;;;;;;;4981034;28;20058;-78
2022/01/11 06:57:32;;;;;;;35.88;21.73;;;;;;;;;;5008077;28;20497;-77
2022/01/11 06:59:58;;;;;;;33.60;20.98;;;;;;;;;;5004517;28;20508;-78
2022/01/11 07:02:24;;;;;;;32.10;20.55;;;;;;;;;;5004475;28;20053;-77
2022/01/11 07:04:50;;;;;;;37.10;22.13;;;;;;;;;;4985022;28;20046;-77
2022/01/11 07:07:16;;;;;;;36.33;22.05;;;;;;;;;;5001748;28;20433;-77
2022/01/11 07:09:42;;;;;;;36.45;21.17;;;;;;;;;;4986863;28;20054;-78
2022/01/11 07:12:08;;;;;;;31.20;19.50;;;;;;;;;;4983750;28;20123;-77
2022/01/11 07:14:34;;;;;;;33.08;20.70;;;;;;;;;;4986424;28;20054;-77
2022/01/11 07:17:00;;;;;;;31.33;19.90;;;;;;;;;;4988529;28;20053;-77
2022/01/11 07:19:29;;;;;;;35.03;21.75;;;;;;;;;;4999988;28;23823;-77
2022/01/11 07:21:58;;;;;;;36.05;21.75;;;;;;;;;;4997120;28;20089;-77
2022/01/11 07:24:25;;;;;;;34.78;21.05;;;;;;;;;;4983918;28;20066;-78
2022/01/11 07:26:51;;;;;;;35.40;20.50;;;;;;;;;;5007722;28;20072;-77
2022/01/11 07:29:17;;;;;;;32.03;21.42;;;;;;;;;;5000934;28;20034;-76
2022/01/11 07:31:43;;;;;;;36.08;21.58;;;;;;;;;;5001292;28;20126;-78
2022/01/11 07:34:10;;;;;;;35.15;21.05;;;;;;;;;;5006013;28;20037;-77
2022/01/11 07:36:37;;;;;;;34.00;20.80;;;;;;;;;;4988243;28;20045;-77
2022/01/11 07:39:04;;;;;;;32.63;20.67;;;;;;;;;;4988463;28;20074;-77
2022/01/11 07:41:30;;;;;;;31.10;19.98;;;;;;;;;;4982537;28;20035;-77
2022/01/11 07:43:59;;;;;;;33.97;21.95;;;;;;;;;;4981113;28;20165;-77
2022/01/11 07:46:25;;;;;;;32.60;21.15;;;;;;;;;;4987147;28;20157;-77
2022/01/11 07:48:52;;;;;;;32.83;21.63;;;;;;;;;;5007614;28;20052;-77
2022/01/11 07:51:18;;;;;;;34.63;21.45;;;;;;;;;;4987401;28;20030;-77
2022/01/11 07:53:44;;;;;;;31.88;20.67;;;;;;;;;;5003666;28;20057;-76
2022/01/11 07:56:10;;;;;;;36.00;20.98;;;;;;;;;;5003791;28;20038;-77
2022/01/11 07:58:36;;;;;;;33.03;21.48;;;;;;;;;;4983782;28;20132;-77
2022/01/11 08:01:02;;;;;;;35.55;21.02;;;;;;;;;;4991188;28;20050;-77
2022/01/11 08:03:28;;;;;;;36.15;21.73;;;;;;;;;;5004635;28;20521;-77
2022/01/11 08:05:54;;;;;;;33.20;20.48;;;;;;;;;;4990596;28;20054;-77
2022/01/11 08:08:20;;;;;;;34.03;20.63;;;;;;;;;;5012567;28;20056;-77
2022/01/11 08:10:46;;;;;;;35.67;21.85;;;;;;;;;;5002814;28;20391;-77
2022/01/11 08:13:12;;;;;;;32.78;19.98;;;;;;;;;;5006622;28;20513;-77
2022/01/11 08:15:38;;;;;;;35.95;20.70;;;;;;;;;;5005641;28;20486;-77
2022/01/11 08:18:05;;;;;;;33.60;20.05;;;;;;;;;;5007914;28;20140;-77
2022/01/11 08:20:31;;;;;;;32.75;20.55;;;;;;;;;;5011896;28;20512;-77
2022/01/11 08:22:57;;;;;;;32.95;20.63;;;;;;;;;;5006382;28;20183;-78
2022/01/11 08:25:25;;;;;;;36.28;21.45;;;;;;;;;;4990141;28;20482;-77
2022/01/11 08:27:51;;;;;;;35.90;22.02;;;;;;;;;;4983620;28;20495;-77
2022/01/11 08:30:17;;;;;;;33.20;21.52;;;;;;;;;;4988661;28;20128;-78
2022/01/11 08:32:43;;;;;;;35.10;20.45;;;;;;;;;;4988072;28;20042;-78
2022/01/11 08:35:09;;;;;;;39.75;22.52;;;;;;;;;;4980834;28;20046;-78
2022/01/11 08:37:35;;;;;;;35.47;20.65;;;;;;;;;;5001249;28;20041;-78
2022/01/11 08:40:01;;;;;;;34.13;21.33;;;;;;;;;;4991493;28;20408;-78
2022/01/11 08:42:29;;;;;;;39.10;22.67;;;;;;;;;;5007839;28;20057;-78
2022/01/11 08:44:55;;;;;;;35.08;20.98;;;;;;;;;;4981448;28;20050;-78
2022/01/11 08:47:21;;;;;;;34.40;20.95;;;;;;;;;;5007627;28;20129;-78
2022/01/11 08:49:47;;;;;;;36.45;22.80;;;;;;;;;;5004383;28;20046;-78
2022/01/11 08:52:13;;;;;;;37.65;21.92;;;;;;;;;;5008076;28;20056;-78
2022/01/11 08:54:39;;;;;;;37.15;21.48;;;;;;;;;;4990361;28;20050;-77
2022/01/11 08:57:06;;;;;;;36.47;21.55;;;;;;;;;;4988982;28;20041;-76
2022/01/11 08:59:32;;;;;;;39.03;23.48;;;;;;;;;;4991408;28;20049;-77
2022/01/11 09:01:59;;;;;;;35.80;21.40;;;;;;;;;;4991837;28;20057;-77
2022/01/11 09:04:26;;;;;;;40.22;23.90;;;;;;;;;;5005592;28;20080;-78
2022/01/11 09:06:53;;;;;;;36.20;21.95;;;;;;;;;;4989511;28;20057;-77
2022/01/11 09:09:20;;;;;;;35.05;21.50;;;;;;;;;;5006380;28;20103;-77
2022/01/11 09:11:46;;;;;;;34.85;22.20;;;;;;;;;;5006466;28;20045;-77
2022/01/11 09:14:13;;;;;;;40.38;24.23;;;;;;;;;;5009878;28;20073;-77
2022/01/11 09:16:39;;;;;;;42.13;24.65;;;;;;;;;;4997689;28;20108;-77
2022/01/11 09:19:05;;;;;;;36.83;23.00;;;;;;;;;;4991853;28;20123;-76
2022/01/11 09:21:32;;;;;;;37.50;23.25;;;;;;;;;;4992814;28;20057;-77
2022/01/11 09:24:00;;;;;;;39.35;22.55;;;;;;;;;;4981014;28;20051;-78
2022/01/11 09:26:26;;;;;;;39.65;24.55;;;;;;;;;;5005878;28;20035;-76
2022/01/11 09:28:52;;;;;;;40.88;22.58;;;;;;;;;;4985661;28;20042;-77
2022/01/11 09:31:18;;;;;;;40.88;23.45;;;;;;;;;;4988472;28;20060;-77
2022/01/11 09:33:44;;;;;;;34.75;21.55;;;;;;;;;;4989695;28;20046;-77
2022/01/11 09:36:10;;;;;;;37.05;24.10;;;;;;;;;;5002984;28;20045;-78
2022/01/11 09:38:36;;;;;;;33.85;21.88;;;;;;;;;;5004641;28;20398;-76
2022/01/11 09:41:03;;;;;;;38.70;23.27;;;;;;;;;;4986257;28;20056;-77
2022/01/11 09:43:30;;;;;;;40.17;23.42;;;;;;;;;;5003560;28;20122;-77
2022/01/11 09:45:56;;;;;;;38.33;23.58;;;;;;;;;;5004039;28;20056;-77
2022/01/11 09:48:25;;;;;;;38.42;23.85;;;;;;;;;;5006703;28;20113;-77
2022/01/11 09:50:51;;;;;;;36.50;21.83;;;;;;;;;;5007867;28;20062;-77
2022/01/11 09:53:17;;;;;;;33.75;22.40;;;;;;;;;;4988242;28;20082;-77
2022/01/11 09:55:44;;;;;;;36.03;22.10;;;;;;;;;;5001690;28;20506;-77
2022/01/11 09:58:11;;;;;;;38.17;23.15;;;;;;;;;;5004165;28;20045;-77
2022/01/11 10:00:37;;;;;;;37.10;22.73;;;;;;;;;;4989045;28;20064;-77
2022/01/11 10:03:04;;;;;;;33.88;21.80;;;;;;;;;;5005269;28;20049;-76
2022/01/11 10:05:30;;;;;;;35.90;22.85;;;;;;;;;;5005915;28;20042;-77
2022/01/11 10:07:56;;;;;;;35.30;21.05;;;;;;;;;;5004298;28;20050;-77
2022/01/11 10:10:24;;;;;;;38.03;22.65;;;;;;;;;;5005267;28;20060;-77
2022/01/11 10:12:52;;;;;;;35.08;21.63;;;;;;;;;;5002248;28;20101;-78
2022/01/11 10:15:28;;;;;;;37.42;22.70;;;;;;;;;;5003835;28;20049;-78
2022/01/11 10:17:54;;;;;;;30.73;20.60;;;;;;;;;;5004129;28;20061;-78
2022/01/11 10:20:22;;;;;;;36.72;22.13;;;;;;;;;;5003861;28;20069;-78
2022/01/11 10:22:56;;;;;;;30.92;20.23;;;;;;;;;;5000173;28;20062;-78
2022/01/11 10:25:23;;;;;;;33.33;20.90;;;;;;;;;;5004235;28;20056;-78
2022/01/11 10:28:01;;;;;;;29.77;20.20;;;;;;;;;;5003610;28;20104;-78
2022/01/11 10:30:28;;;;;;;33.20;20.85;;;;;;;;;;5005268;28;20136;-78
2022/01/11 10:32:57;;;;;;;33.88;20.88;;;;;;;;;;5009982;28;20042;-78
2022/01/11 10:35:25;;;;;;;35.15;21.05;;;;;;;;;;4985965;28;20054;-78
2022/01/11 10:37:53;;;;;;;35.42;21.55;;;;;;;;;;4997080;28;20080;-78
2022/01/11 10:40:32;;;;;;;35.85;21.25;;;;;;;;;;5005592;28;20125;-78
2022/01/11 10:43:01;;;;;;;34.17;21.15;;;;;;;;;;5004466;28;20046;-78
2022/01/11 10:45:35;;;;;;;30.08;18.17;;;;;;;;;;4987888;28;20045;-78
2022/01/11 10:48:06;;;;;;;31.48;19.92;;;;;;;;;;5001215;28;20521;-78
2022/01/11 10:50:40;;;;;;;32.60;19.38;;;;;;;;;;5001874;28;20504;-78
2022/01/11 10:53:12;;;;;;;31.80;20.05;;;;;;;;;;5003571;28;20089;-78
2022/01/11 10:55:38;;;;;;;32.20;19.50;;;;;;;;;;5006155;28;20049;-78
2022/01/11 10:58:12;;;;;;;31.00;19.98;;;;;;;;;;5000040;28;20169;-78
2022/01/11 11:00:41;;;;;;;31.45;19.77;;;;;;;;;;4987320;28;20045;-77
2022/01/11 11:03:13;;;;;;;29.23;18.65;;;;;;;;;;5006654;28;20172;-80
2022/01/11 11:05:41;;;;;;;31.58;20.63;;;;;;;;;;4987403;28;20129;-82
2022/01/11 11:08:13;;;;;;;32.70;20.60;;;;;;;;;;4984957;28;20042;-78
2022/01/11 11:10:50;;;;;;;27.83;18.45;;;;;;;;;;4986088;28;20049;-78
2022/01/11 11:13:17;;;;;;;29.92;18.08;;;;;;;;;;4985838;28;20136;-77
2022/01/11 11:15:43;;;;;;;29.42;19.45;;;;;;;;;;5003949;28;20042;-77
2022/01/11 11:18:25;;;;;;;29.80;19.67;;;;;;;;;;4998396;28;20049;-76
2022/01/11 11:20:53;;;;;;;33.50;19.67;;;;;;;;;;4980972;28;20054;-77
2022/01/11 11:23:20;;;;;;;30.60;18.95;;;;;;;;;;4988398;28;20112;-77
2022/01/11 11:25:46;;;;;;;27.60;17.67;;;;;;;;;;4985224;28;20153;-77
2022/01/11 11:28:12;;;;;;;28.02;18.48;;;;;;;;;;4982115;28;20502;-77
2022/01/11 11:30:38;;;;;;;28.27;18.13;;;;;;;;;;4988404;28;20918;-77
2022/01/11 11:33:06;;;;;;;26.10;18.02;;;;;;;;;;4988804;28;20046;-77
2022/01/11 11:35:32;;;;;;;24.88;16.70;;;;;;;;;;4989529;28;20046;-77
2022/01/11 11:38:00;;;;;;;29.10;19.48;;;;;;;;;;4989678;28;20092;-77
2022/01/11 11:40:27;;;;;;;28.70;17.70;;;;;;;;;;4991587;28;20071;-78
2022/01/11 11:42:59;;;;;;;28.45;18.20;;;;;;;;;;4985095;28;20057;-78
2022/01/11 11:45:31;;;;;;;26.67;17.80;;;;;;;;;;4984489;28;20160;-78
2022/01/11 11:48:08;;;;;;;23.42;14.90;;;;;;;;;;4986209;28;20038;-78
2022/01/11 11:50:45;;;;;;;26.58;17.75;;;;;;;;;;4980911;28;20273;-79
2022/01/11 11:53:19;;;;;;;28.77;17.98;;;;;;;;;;4998407;28;20053;-81
2022/01/11 11:55:49;;;;;;;27.20;17.77;;;;;;;;;;5002328;28;20045;-85
2022/01/11 11:58:19;;;;;;;25.05;17.40;;;;;;;;;;5006015;28;20486;-78
2022/01/11 12:00:46;;;;;;;26.30;16.73;;;;;;;;;;4984042;28;20081;-78
2022/01/11 12:03:22;;;;;;;24.17;16.50;;;;;;;;;;4982571;28;20465;-79
2022/01/11 12:05:48;;;;;;;23.52;16.50;;;;;;;;;;4982941;28;20838;-78
2022/01/11 12:08:34;;;;;;;23.65;15.95;;;;;;;;;;5000065;28;20058;-76
2022/01/11 12:11:10;;;;;;;22.58;15.40;;;;;;;;;;5008045;28;20129;-76
2022/01/11 12:13:51;;;;;;;22.75;16.20;;;;;;;;;;5011959;28;20109;-80
2022/01/11 12:16:26;;;;;;;25.02;16.30;;;;;;;;;;4990259;28;20049;-80
2022/01/11 12:18:57;;;;;;;22.35;15.35;;;;;;;;;;4987171;28;20175;-81
2022/01/11 12:21:27;;;;;;;22.83;15.65;;;;;;;;;;5003332;28;20149;-81
2022/01/11 12:23:54;;;;;;;25.05;15.88;;;;;;;;;;4985528;28;20054;-80
2022/01/11 12:26:22;;;;;;;25.13;16.70;;;;;;;;;;4987761;28;20127;-80
2022/01/11 12:29:04;;;;;;;24.50;15.20;;;;;;;;;;5002396;28;20053;-80
2022/01/11 12:31:46;;;;;;;25.25;15.63;;;;;;;;;;5008619;28;20053;-80
2022/01/11 12:34:13;;;;;;;23.60;16.23;;;;;;;;;;5009240;28;20561;-80
2022/01/11 12:36:52;;;;;;;24.85;17.48;;;;;;;;;;4993187;28;20054;-80
2022/01/11 12:39:19;;;;;;;24.40;15.90;;;;;;;;;;4990552;28;20046;-79
2022/01/11 12:41:45;;;;;;;22.75;16.02;;;;;;;;;;4988580;28;20068;-79
2022/01/11 12:47:05;;;;;;;21.50;14.77;;;;;;;;;;5004219;28;20475;-78
2022/01/11 12:49:32;;;;;;;21.50;15.23;;;;;;;;;;4987942;28;20042;-78
2022/01/11 12:52:14;;;;;;;22.20;15.52;;;;;;;;;;4985493;28;20169;-78
2022/01/11 12:54:40;;;;;;;22.75;15.77;;;;;;;;;;4986009;28;20057;-78
2022/01/11 12:57:09;;;;;;;22.58;14.90;;;;;;;;;;4994093;28;20045;-77
2022/01/11 12:59:36;;;;;;;23.23;15.32;;;;;;;;;;5008782;28;20057;-77
2022/01/11 13:02:16;;;;;;;20.70;15.43;;;;;;;;;;4990959;28;20065;-77
2022/01/11 13:04:47;;;;;;;21.58;15.32;;;;;;;;;;4987128;28;20046;-78
2022/01/11 13:07:19;;;;;;;21.77;15.77;;;;;;;;;;4989721;28;20042;-77
2022/01/11 13:09:46;;;;;;;21.73;15.30;;;;;;;;;;4993860;28;20041;-77
2022/01/11 13:12:25;;;;;;;22.17;14.30;;;;;;;;;;4991754;28;20048;-77
2022/01/11 13:15:08;;;;;;;24.45;15.48;;;;;;;;;;4989886;28;20056;-78
2022/01/11 13:17:47;;;;;;;21.42;15.27;;;;;;;;;;4982117;28;20093;-77
2022/01/11 13:20:13;;;;;;;21.10;14.57;;;;;;;;;;5007139;28;20517;-77
2022/01/11 13:23:03;;;;;;;18.90;13.75;;;;;;;;;;4990650;28;20497;-77
2022/01/11 13:25:36;;;;;;;21.70;14.60;;;;;;;;;;5007468;28;20046;-77
2022/01/11 13:28:02;;;;;;;19.98;15.25;;;;;;;;;;4985128;28;20073;-77
2022/01/11 13:30:39;;;;;;;19.40;13.77;;;;;;;;;;4986619;28;20042;-78
2022/01/11 13:33:12;;;;;;;20.98;15.38;;;;;;;;;;4999767;28;20096;-77
2022/01/11 13:35:41;;;;;;;19.02;14.05;;;;;;;;;;5004676;28;20037;-77
2022/01/11 13:38:11;;;;;;;19.00;13.43;;;;;;;;;;4987414;28;20133;-79
2022/01/11 13:40:38;;;;;;;19.05;14.00;;;;;;;;;;4985048;28;20050;-76
2022/01/11 13:43:13;;;;;;;18.67;14.70;;;;;;;;;;5002853;28;20042;-78
2022/01/11 13:45:44;;;;;;;18.50;12.70;;;;;;;;;;4989780;28;20054;-76
2022/01/11 13:48:10;;;;;;;16.50;13.25;;;;;;;;;;4985479;28;20042;-77
2022/01/11 13:50:46;;;;;;;17.73;13.32;;;;;;;;;;4985786;28;20105;-77
2022/01/11 13:53:21;;;;;;;16.83;12.02;;;;;;;;;;5006226;28;20529;-76
2022/01/11 13:55:48;;;;;;;18.52;13.15;;;;;;;;;;4990032;28;20046;-80
2022/01/11 13:58:16;;;;;;;18.25;13.57;;;;;;;;;;4988980;28;20074;-78
2022/01/11 14:00:42;;;;;;;16.13;13.07;;;;;;;;;;4998376;28;20053;-77
2022/01/11 14:03:15;;;;;;;17.45;13.13;;;;;;;;;;5003268;28;20034;-76
2022/01/11 14:05:41;;;;;;;18.88;13.95;;;;;;;;;;4992756;28;20454;-78
2022/01/11 14:08:10;;;;;;;19.13;13.95;;;;;;;;;;4982444;28;20494;-76
2022/01/11 14:10:42;;;;;;;18.15;14.13;;;;;;;;;;4991186;28;20048;-76
2022/01/11 14:13:09;;;;;;;17.83;14.27;;;;;;;;;;4987963;28;20121;-76
2022/01/11 14:15:36;;;;;;;19.17;13.75;;;;;;;;;;4985873;28;20056;-76
2022/01/11 14:18:10;;;;;;;19.15;13.45;;;;;;;;;;5007506;28;20085;-76
2022/01/11 14:20:37;;;;;;;17.45;13.68;;;;;;;;;;5002233;28;20042;-75
2022/01/11 14:23:14;;;;;;;19.00;14.32;;;;;;;;;;4989192;28;20050;-75
2022/01/11 14:25:41;;;;;;;18.65;13.75;;;;;;;;;;4982436;28;20049;-75
2022/01/11 14:28:12;;;;;;;18.40;13.52;;;;;;;;;;4981151;28;20066;-75